createdAt,value
2022-08-23T00:00:13.788Z,98829.88
2022-08-23T00:02:42.537Z,98835.41
2022-08-23T00:05:12.392Z,98829.47
2022-08-23T00:07:41.209Z,98836.38
2022-08-23T00:10:11.439Z,98833.41
2022-08-23T00:12:39.996Z,98834.38
2022-08-23T00:15:09.655Z,98839.75
2022-08-23T00:17:39.161Z,98831.84
2022-08-23T00:20:08.790Z,98836.91
2022-08-23T00:22:38.127Z,98836.09
2022-08-23T00:25:07.388Z,98833.25
2022-08-23T00:27:36.178Z,98844.84
2022-08-23T00:30:06.119Z,98844.81
2022-08-23T00:32:36.484Z,98839.03
2022-08-23T00:35:07.384Z,98845.81
2022-08-23T00:37:35.358Z,98838.00
2022-08-23T00:40:03.860Z,98847.84
2022-08-23T00:42:53.433Z,98846.75
2022-08-23T00:45:42.809Z,98855.16
2022-08-23T00:48:11.591Z,98847.00
2022-08-23T00:50:44.027Z,98851.47
2022-08-23T00:53:16.698Z,98850.50
2022-08-23T00:55:46.781Z,98853.72
2022-08-23T00:58:15.826Z,98851.28
2022-08-23T01:00:43.516Z,98853.06
2022-08-23T01:03:13.426Z,98853.91
2022-08-23T01:05:48.854Z,98860.81
2022-08-23T01:08:17.206Z,98859.81
2022-08-23T01:10:47.392Z,98856.28
2022-08-23T01:13:17.665Z,98862.44
2022-08-23T01:15:48.028Z,98856.81
2022-08-23T01:18:18.312Z,98857.06
2022-08-23T01:20:52.523Z,98855.38
2022-08-23T01:23:29.363Z,98857.16
2022-08-23T01:25:58.355Z,98859.88
2022-08-23T01:28:26.171Z,98860.16
2022-08-23T01:30:53.967Z,98863.28
2022-08-23T01:33:21.791Z,98864.53
2022-08-23T01:35:53.391Z,98863.22
2022-08-23T01:38:22.261Z,98867.44
2022-08-23T01:40:51.523Z,98865.19
2022-08-23T01:43:21.407Z,98858.91
2022-08-23T01:45:49.892Z,98860.88
2022-08-23T01:48:18.937Z,98863.47
2022-08-23T01:50:47.165Z,98858.97
2022-08-23T01:53:18.074Z,98864.19
2022-08-23T01:55:45.726Z,98865.03
2022-08-23T01:58:14.786Z,98868.03
2022-08-23T02:00:44.315Z,98866.03
2022-08-23T02:03:12.516Z,98863.22
2022-08-23T02:05:40.990Z,98870.31
2022-08-23T02:08:26.772Z,98871.69
2022-08-23T02:10:54.933Z,98866.53
2022-08-23T02:13:23.953Z,98866.06
2022-08-23T02:15:52.495Z,98868.34
2022-08-23T02:18:21.288Z,98868.81
2022-08-23T02:20:50.047Z,98867.56
2022-08-23T02:23:18.280Z,98876.50
2022-08-23T02:25:45.931Z,98880.53
2022-08-23T02:28:13.548Z,98883.69
2022-08-23T02:30:42.531Z,98886.34
2022-08-23T02:33:13.019Z,98878.31
2022-08-23T02:35:43.308Z,98870.09
2022-08-23T02:38:13.006Z,98871.28
2022-08-23T02:40:42.250Z,98873.81
2022-08-23T02:43:09.985Z,98872.06
2022-08-23T02:45:37.910Z,98874.84
2022-08-23T02:48:08.115Z,98872.09
2022-08-23T02:50:36.698Z,98869.75
2022-08-23T02:53:05.255Z,98877.28
2022-08-23T02:55:32.896Z,98886.88
2022-08-23T02:58:00.870Z,98887.97
2022-08-23T03:00:28.849Z,98884.00
2022-08-23T03:02:56.486Z,98877.94
2022-08-23T03:05:25.503Z,98888.16
2022-08-23T03:07:53.160Z,98890.34
2022-08-23T03:10:21.546Z,98890.94
2022-08-23T03:12:49.283Z,98884.13
2022-08-23T03:15:16.885Z,98887.16
2022-08-23T03:17:44.459Z,98888.78
2022-08-23T03:20:12.464Z,98888.78
2022-08-23T03:22:41.532Z,98887.06
2022-08-23T03:25:21.600Z,98892.53
2022-08-23T03:27:49.262Z,98897.03
2022-08-23T03:30:20.045Z,98884.06
2022-08-23T03:32:48.955Z,98885.75
2022-08-23T03:35:17.254Z,98894.72
2022-08-23T03:37:46.369Z,98887.34
2022-08-23T03:40:14.098Z,98892.44
2022-08-23T03:42:41.779Z,98894.38
2022-08-23T03:45:10.063Z,98900.19
2022-08-23T03:47:37.669Z,98893.53
2022-08-23T03:50:05.975Z,98894.00
2022-08-23T03:52:33.639Z,98899.22
2022-08-23T03:55:02.737Z,98895.22
2022-08-23T03:57:30.366Z,98892.06
2022-08-23T03:59:59.827Z,98904.06
2022-08-23T04:02:27.674Z,98907.81
2022-08-23T04:04:56.750Z,98912.31
2022-08-23T04:07:24.571Z,98910.88
2022-08-23T04:09:55.131Z,98910.25
2022-08-23T04:12:24.598Z,98911.47
2022-08-23T04:14:53.388Z,98913.66
2022-08-23T04:17:21.608Z,98918.38
2022-08-23T04:19:49.457Z,98912.91
2022-08-23T04:22:19.107Z,98920.38
2022-08-23T04:24:47.678Z,98920.75
2022-08-23T04:27:16.847Z,98922.25
2022-08-23T04:29:45.829Z,98927.53
2022-08-23T04:32:14.697Z,98927.41
2022-08-23T04:34:54.643Z,98932.63
2022-08-23T04:37:23.229Z,98924.41
2022-08-23T04:40:08.509Z,98935.78
2022-08-23T04:42:36.253Z,98941.38
2022-08-23T04:45:05.696Z,98941.38
2022-08-23T04:47:36.981Z,98946.50
2022-08-23T04:50:05.037Z,98953.91
2022-08-23T04:52:32.700Z,98949.66
2022-08-23T04:55:00.365Z,98962.16
2022-08-23T04:57:28.105Z,98953.91
2022-08-23T04:59:55.902Z,98955.59
2022-08-23T05:02:25.057Z,98960.31
2022-08-23T05:04:52.754Z,98960.09
2022-08-23T05:07:21.755Z,98950.16
2022-08-23T05:10:13.733Z,98965.31
2022-08-23T05:12:41.782Z,98965.66
2022-08-23T05:15:10.466Z,98962.16
2022-08-23T05:17:40.146Z,98974.88
2022-08-23T05:20:09.198Z,98982.91
2022-08-23T05:22:38.139Z,98972.84
2022-08-23T05:25:06.901Z,98983.53
2022-08-23T05:27:34.593Z,98984.00
2022-08-23T05:30:02.855Z,98984.59
2022-08-23T05:32:33.524Z,98996.75
2022-08-23T05:35:02.928Z,98993.47
2022-08-23T05:37:30.573Z,98990.44
2022-08-23T05:39:58.314Z,98992.16
2022-08-23T05:42:25.977Z,98995.69
2022-08-23T05:44:53.693Z,98992.75
2022-08-23T05:47:24.685Z,98988.88
2022-08-23T05:49:52.902Z,98997.97
2022-08-23T05:52:21.902Z,98993.47
2022-08-23T05:54:49.655Z,99008.28
2022-08-23T05:57:17.317Z,99012.91
2022-08-23T05:59:45.026Z,99019.22
2022-08-23T06:02:12.649Z,99025.41
2022-08-23T06:04:40.346Z,99028.69
2022-08-23T06:07:09.783Z,99016.91
2022-08-23T06:09:39.045Z,99035.47
2022-08-23T06:12:06.878Z,99020.94
2022-08-23T06:14:34.529Z,99027.84
2022-08-23T06:17:02.455Z,99026.59
2022-08-23T06:19:30.112Z,99030.09
2022-08-23T06:21:57.868Z,99037.00
2022-08-23T06:24:25.828Z,99017.56
2022-08-23T06:26:54.933Z,99034.31
2022-08-23T06:29:23.174Z,99022.28
2022-08-23T06:31:52.677Z,99031.38
2022-08-23T06:34:23.314Z,99026.28
2022-08-23T06:36:52.845Z,99039.81
2022-08-23T06:39:22.177Z,99033.72
2022-08-23T06:41:50.452Z,99036.47
2022-08-23T06:44:20.570Z,99037.94
2022-08-23T06:46:49.542Z,99035.06
2022-08-23T06:49:17.636Z,99041.72
2022-08-23T06:51:47.707Z,99042.03
2022-08-23T06:54:17.071Z,99042.63
2022-08-23T06:56:46.037Z,99038.28
2022-08-23T06:59:15.359Z,99053.13
2022-08-23T07:01:47.350Z,99054.91
2022-08-23T07:04:18.006Z,99057.84
2022-08-23T07:06:46.634Z,99049.94
2022-08-23T07:09:14.650Z,99055.41
2022-08-23T07:11:42.945Z,99063.66
2022-08-23T07:14:13.436Z,99054.34
2022-08-23T07:16:45.840Z,99060.97
2022-08-23T07:19:13.797Z,99063.91
2022-08-23T07:21:42.363Z,99048.56
2022-08-23T07:24:10.322Z,99051.88
2022-08-23T07:26:39.252Z,99054.63
2022-08-23T07:29:08.299Z,99061.16
2022-08-23T07:31:40.390Z,99058.03
2022-08-23T07:34:10.234Z,99045.19
2022-08-23T07:36:39.033Z,99057.78
2022-08-23T07:39:07.680Z,99051.69
2022-08-23T07:41:36.113Z,99057.50
2022-08-23T07:44:06.005Z,99055.78
2022-08-23T07:46:34.485Z,99062.84
2022-08-23T07:49:03.319Z,99065.69
2022-08-23T07:51:33.650Z,99062.53
2022-08-23T07:54:02.619Z,99070.75
2022-08-23T07:56:30.440Z,99069.34
2022-08-23T07:58:58.072Z,99066.38
2022-08-23T08:01:27.839Z,99070.34
2022-08-23T08:03:58.373Z,99077.97
2022-08-23T08:06:29.034Z,99069.84
2022-08-23T08:08:58.699Z,99077.13
2022-08-23T08:11:33.881Z,99080.50
2022-08-23T08:14:04.232Z,99077.31
2022-08-23T08:16:34.132Z,99070.34
2022-08-23T08:19:07.426Z,99072.28
2022-08-23T08:21:35.875Z,99079.88
2022-08-23T08:24:09.883Z,99078.31
2022-08-23T08:26:37.684Z,99072.34
2022-08-23T08:29:05.426Z,99077.22
2022-08-23T08:31:34.280Z,99082.94
2022-08-23T08:34:02.087Z,99081.50
2022-08-23T08:36:32.622Z,99083.69
2022-08-23T08:39:00.996Z,99085.16
2022-08-23T08:41:48.446Z,99088.06
2022-08-23T08:44:26.716Z,99088.81
2022-08-23T08:46:57.232Z,99093.13
2022-08-23T08:49:34.050Z,99087.34
2022-08-23T08:52:07.043Z,99086.50
2022-08-23T08:54:34.727Z,99090.19
2022-08-23T08:57:03.903Z,99082.56
2022-08-23T08:59:47.660Z,99085.53
2022-08-23T09:02:32.736Z,99089.72
2022-08-23T09:05:02.598Z,99089.28
2022-08-23T09:07:39.265Z,99090.03
2022-08-23T09:10:22.853Z,99083.41
2022-08-23T09:13:03.507Z,99087.97
2022-08-23T09:15:35.284Z,99084.25
2022-08-23T09:18:09.077Z,99084.97
2022-08-23T09:20:37.260Z,99090.06
2022-08-23T09:23:08.913Z,99091.75
2022-08-23T09:25:36.618Z,99075.72
2022-08-23T09:28:06.281Z,99077.13
2022-08-23T09:30:49.973Z,99075.25
2022-08-23T09:33:18.864Z,99077.78
2022-08-23T09:36:03.641Z,99075.47
2022-08-23T09:38:31.282Z,99081.06
2022-08-23T09:40:59.318Z,99077.69
2022-08-23T09:43:31.361Z,99071.59
2022-08-23T09:46:01.839Z,99070.91
2022-08-23T09:48:39.920Z,99073.97
2022-08-23T09:51:16.685Z,99075.28
2022-08-23T09:53:50.017Z,99068.34
2022-08-23T09:56:20.656Z,99065.25
2022-08-23T09:58:52.523Z,99062.47
2022-08-23T10:01:22.235Z,99061.16
2022-08-23T10:04:08.668Z,99063.81
2022-08-23T10:06:36.628Z,99060.78
2022-08-23T10:09:06.527Z,99068.72
2022-08-23T10:11:38.547Z,99064.25
2022-08-23T10:14:07.669Z,99059.34
2022-08-23T10:16:42.129Z,99064.84
2022-08-23T10:19:15.989Z,99064.84
2022-08-23T10:21:49.594Z,99057.72
2022-08-23T10:24:24.127Z,99057.31
2022-08-23T10:27:33.691Z,99064.19
2022-08-23T10:30:07.410Z,99057.34
2022-08-23T10:32:46.632Z,99065.88
2022-08-23T10:35:32.742Z,99060.63
2022-08-23T10:38:30.674Z,99057.84
2022-08-23T10:41:04.933Z,99053.16
2022-08-23T10:43:39.961Z,99054.41
2022-08-23T10:46:09.703Z,99045.84
2022-08-23T10:48:40.585Z,99049.53
2022-08-23T10:51:11.708Z,99048.69
2022-08-23T10:53:46.255Z,99043.81
2022-08-23T10:56:18.978Z,99039.63
2022-08-23T10:58:48.443Z,99039.91
2022-08-23T11:01:26.428Z,99040.16
2022-08-23T11:04:02.524Z,99041.00
2022-08-23T11:06:52.367Z,99028.88
2022-08-23T11:09:51.498Z,99036.31
2022-08-23T11:12:24.487Z,99030.63
2022-08-23T11:15:11.274Z,99026.91
2022-08-23T11:17:53.718Z,99018.84
2022-08-23T11:20:54.716Z,99024.91
2022-08-23T11:23:45.488Z,99021.88
2022-08-23T11:27:06.671Z,99011.72
2022-08-23T11:29:41.568Z,99013.41
2022-08-23T11:32:25.920Z,99019.84
2022-08-23T11:35:05.602Z,99017.66
2022-08-23T11:37:55.070Z,99011.16
2022-08-23T11:40:41.203Z,99015.47
2022-08-23T11:43:12.335Z,99013.31
2022-08-23T11:45:46.462Z,99017.41
2022-08-23T11:48:19.230Z,99020.06
2022-08-23T11:51:02.989Z,99011.31
2022-08-23T11:53:45.349Z,99012.50
2022-08-23T11:56:31.164Z,99003.75
2022-08-23T11:59:09.787Z,99010.50
2022-08-23T12:01:39.329Z,99006.56
2022-08-23T12:04:11.457Z,99010.97
2022-08-23T12:06:50.618Z,99004.81
2022-08-23T12:09:51.652Z,99001.66
2022-08-23T12:12:36.358Z,98999.97
2022-08-23T12:15:09.418Z,98994.84
2022-08-23T12:18:13.295Z,98993.53
2022-08-23T12:20:41.654Z,98989.97
2022-08-23T12:23:21.851Z,98992.34
2022-08-23T12:26:00.810Z,98994.13
2022-08-23T12:28:39.315Z,98995.34
2022-08-23T12:31:18.781Z,98979.00
2022-08-23T12:33:55.381Z,98984.84
2022-08-23T12:36:31.341Z,99007.78
2022-08-23T12:39:07.594Z,98999.00
2022-08-23T12:41:53.950Z,98989.41
2022-08-23T12:44:23.683Z,98997.59
2022-08-23T12:46:52.730Z,98993.00
2022-08-23T12:49:27.112Z,98998.03
2022-08-23T12:51:57.344Z,98998.47
2022-08-23T12:54:35.958Z,98990.91
2022-08-23T12:57:11.866Z,98985.88
2022-08-23T12:59:44.291Z,98987.75
2022-08-23T13:02:15.496Z,98987.31
2022-08-23T13:04:44.048Z,98982.31
2022-08-23T13:07:14.022Z,98979.16
2022-08-23T13:09:45.431Z,98980.41
2022-08-23T13:12:21.387Z,98971.16
2022-08-23T13:14:50.916Z,98966.72
2022-08-23T13:17:22.875Z,98966.56
2022-08-23T13:19:52.309Z,98965.72
2022-08-23T13:22:26.405Z,98970.97
2022-08-23T13:25:27.571Z,98963.63
2022-08-23T13:27:56.307Z,98958.59
2022-08-23T13:30:25.812Z,98964.41
2022-08-23T13:33:02.268Z,98953.31
2022-08-23T13:35:33.924Z,98959.78
2022-08-23T13:38:09.273Z,98962.00
2022-08-23T13:40:44.419Z,98961.78
2022-08-23T13:43:15.067Z,98955.09
2022-08-23T13:45:47.790Z,98960.25
2022-08-23T13:48:17.435Z,98956.91
2022-08-23T13:50:47.233Z,98957.97
2022-08-23T13:53:15.966Z,98953.72
2022-08-23T13:55:51.894Z,98955.41
2022-08-23T13:58:27.999Z,98952.66
2022-08-23T14:00:58.772Z,98958.34
2022-08-23T14:03:27.702Z,98954.47
2022-08-23T14:05:55.604Z,98955.72
2022-08-23T14:08:23.796Z,98950.88
2022-08-23T14:10:52.989Z,98955.50
2022-08-23T14:13:23.970Z,98954.66
2022-08-23T14:15:56.776Z,98948.59
2022-08-23T14:18:26.733Z,98955.50
2022-08-23T14:20:54.381Z,98950.03
2022-08-23T14:23:22.042Z,98948.47
2022-08-23T14:25:52.612Z,98945.38
2022-08-23T14:28:20.354Z,98954.38
2022-08-23T14:30:48.900Z,98952.03
2022-08-23T14:33:16.634Z,98946.16
2022-08-23T14:35:44.938Z,98949.50
2022-08-23T14:38:15.079Z,98942.63
2022-08-23T14:40:47.893Z,98954.81
2022-08-23T14:43:16.871Z,98948.28
2022-08-23T14:45:44.716Z,98951.44
2022-08-23T14:48:12.580Z,98950.34
2022-08-23T14:50:41.186Z,98945.91
2022-08-23T14:53:09.411Z,98940.69
2022-08-23T14:55:37.176Z,98948.28
2022-08-23T14:58:05.406Z,98949.72
2022-08-23T15:00:35.852Z,98947.66
2022-08-23T15:03:09.408Z,98946.81
2022-08-23T15:05:37.901Z,98948.53
2022-08-23T15:08:05.561Z,98949.75
2022-08-23T15:13:28.775Z,98935.47
2022-08-23T15:15:59.690Z,98935.06
2022-08-23T15:18:27.322Z,98931.47
2022-08-23T15:20:56.474Z,98939.44
2022-08-23T15:23:24.429Z,98934.44
2022-08-23T15:25:52.490Z,98940.31
2022-08-23T15:28:21.888Z,98927.91
2022-08-23T15:30:50.491Z,98926.66
2022-08-23T15:33:24.707Z,98923.53
2022-08-23T15:35:56.282Z,98927.50
2022-08-23T15:38:25.967Z,98929.59
2022-08-23T15:40:54.687Z,98926.25
2022-08-23T15:43:30.091Z,98920.34
2022-08-23T15:46:05.651Z,98931.28
2022-08-23T15:48:38.086Z,98924.38
2022-08-23T15:51:06.815Z,98926.88
2022-08-23T15:53:34.670Z,98932.13
2022-08-23T15:56:05.715Z,98925.63
2022-08-23T15:58:33.890Z,98925.22
2022-08-23T16:01:02.335Z,98915.63
2022-08-23T16:03:30.336Z,98916.50
2022-08-23T16:05:59.577Z,98919.94
2022-08-23T16:08:29.777Z,98927.09
2022-08-23T16:10:57.951Z,98936.09
2022-08-23T16:13:26.682Z,98927.69
2022-08-23T16:15:54.439Z,98924.16
2022-08-23T16:18:22.219Z,98920.97
2022-08-23T16:20:49.819Z,98924.88
2022-08-23T16:23:23.489Z,98930.91
2022-08-23T16:25:51.142Z,98927.47
2022-08-23T16:28:18.899Z,98928.13
2022-08-23T16:30:46.754Z,98926.44
2022-08-23T16:33:14.478Z,98920.50
2022-08-23T16:35:42.060Z,98926.97
2022-08-23T16:38:09.890Z,98923.66
2022-08-23T16:40:38.875Z,98922.91
2022-08-23T16:43:06.820Z,98923.81
2022-08-23T16:45:34.496Z,98923.84
2022-08-23T16:48:02.219Z,98922.28
2022-08-23T16:50:32.633Z,98927.72
2022-08-23T16:53:05.016Z,98925.59
2022-08-23T16:55:35.142Z,98920.50
2022-08-23T16:58:05.374Z,98924.88
2022-08-23T17:00:33.161Z,98924.88
2022-08-23T17:03:01.337Z,98937.16
2022-08-23T17:05:29.681Z,98922.44
2022-08-23T17:07:57.569Z,98927.09
2022-08-23T17:10:26.007Z,98929.81
2022-08-23T17:12:56.145Z,98930.56
2022-08-23T17:15:27.758Z,98933.28
2022-08-23T17:17:55.421Z,98938.06
2022-08-23T17:20:25.746Z,98943.88
2022-08-23T17:22:54.302Z,98938.38
2022-08-23T17:25:23.558Z,98935.91
2022-08-23T17:27:53.158Z,98941.22
2022-08-23T17:30:22.928Z,98943.94
2022-08-23T17:32:52.574Z,98944.91
2022-08-23T17:35:23.938Z,98937.13
2022-08-23T17:37:51.864Z,98945.22
2022-08-23T17:40:22.483Z,98939.63
2022-08-23T17:42:50.262Z,98957.41
2022-08-23T17:45:19.170Z,98956.88
2022-08-23T17:47:47.264Z,98949.97
2022-08-23T17:50:16.998Z,98952.50
2022-08-23T17:52:45.030Z,98951.38
2022-08-23T17:55:16.843Z,98959.25
2022-08-23T17:57:47.046Z,98960.28
2022-08-23T18:00:17.581Z,98965.28
2022-08-23T18:02:45.317Z,98969.66
2022-08-23T18:05:13.281Z,98968.53
2022-08-23T18:07:42.743Z,98971.06
2022-08-23T18:10:11.942Z,98978.97
2022-08-23T18:12:40.613Z,98972.84
2022-08-23T18:15:09.346Z,98977.47
2022-08-23T18:17:38.698Z,98981.44
2022-08-23T18:20:11.504Z,98980.19
2022-08-23T18:22:40.098Z,98975.00
2022-08-23T18:25:13.354Z,98983.19
2022-08-23T18:28:01.100Z,98985.88
2022-08-23T18:30:29.110Z,98991.34
2022-08-23T18:32:57.311Z,98974.16
2022-08-23T18:35:25.986Z,98980.75
2022-08-23T18:37:54.136Z,98988.88
2022-08-23T18:40:23.278Z,98994.59
2022-08-23T18:42:51.733Z,98989.13
2022-08-23T18:45:19.541Z,98996.38
2022-08-23T18:47:49.868Z,98996.91
2022-08-23T18:50:17.983Z,99008.28
2022-08-23T18:52:45.667Z,99002.91
2022-08-23T18:55:13.696Z,99003.09
2022-08-23T18:57:43.188Z,99009.22
2022-08-23T19:00:12.348Z,99010.91
2022-08-23T19:02:40.145Z,99012.78
2022-08-23T19:05:08.871Z,99009.75
2022-08-23T19:07:36.526Z,99007.75
2022-08-23T19:10:04.768Z,99005.91
2022-08-23T19:12:32.531Z,99019.75
2022-08-23T19:15:01.637Z,99027.19
2022-08-23T19:17:29.321Z,99034.09
2022-08-23T19:19:59.733Z,99024.31
2022-08-23T19:22:27.511Z,99031.75
2022-08-23T19:24:55.831Z,99016.03
2022-08-23T19:27:24.350Z,99032.75
2022-08-23T19:29:52.061Z,99032.88
2022-08-23T19:32:21.345Z,99031.34
2022-08-23T19:34:49.227Z,99028.53
2022-08-23T19:37:20.486Z,99037.94
2022-08-23T19:39:50.862Z,99042.00
2022-08-23T19:42:20.480Z,99042.66
2022-08-23T19:44:48.335Z,99036.06
2022-08-23T19:47:19.871Z,99037.41
2022-08-23T19:49:52.643Z,99044.66
2022-08-23T19:52:20.369Z,99055.97
2022-08-23T19:54:49.061Z,99052.25
2022-08-23T19:57:16.788Z,99050.91
2022-08-23T19:59:44.636Z,99042.78
2022-08-23T20:02:13.874Z,99052.75
2022-08-23T20:04:41.653Z,99051.38
2022-08-23T20:07:10.630Z,99045.94
2022-08-23T20:09:38.408Z,99054.38
2022-08-23T20:12:06.485Z,99052.69
2022-08-23T20:14:34.238Z,99054.34
2022-08-23T20:17:04.486Z,99054.34
2022-08-23T20:19:32.245Z,99057.81
2022-08-23T20:22:20.282Z,99065.41
2022-08-23T20:24:52.058Z,99065.88
2022-08-23T20:27:28.324Z,99081.53
2022-08-23T20:29:58.886Z,99076.09
2022-08-23T20:32:26.772Z,99077.44
2022-08-23T20:34:54.559Z,99067.34
2022-08-23T20:37:22.500Z,99064.44
2022-08-23T20:39:52.349Z,99072.84
2022-08-23T20:42:20.396Z,99076.13
2022-08-23T20:44:48.988Z,99075.44
2022-08-23T20:47:16.837Z,99073.06
2022-08-23T20:49:44.800Z,99070.06
2022-08-23T20:52:12.897Z,99072.53
2022-08-23T20:54:40.647Z,99074.56
2022-08-23T20:57:09.683Z,99081.44
2022-08-23T20:59:40.960Z,99075.97
2022-08-23T21:02:11.616Z,99071.75
2022-08-23T21:04:40.355Z,99078.97
2022-08-23T21:07:08.485Z,99080.34
2022-08-23T21:09:36.157Z,99078.66
2022-08-23T21:12:05.332Z,99078.34
2022-08-23T21:14:34.252Z,99079.03
2022-08-23T21:17:02.058Z,99084.97
2022-08-23T21:19:31.219Z,99084.28
2022-08-23T21:21:59.253Z,99081.59
2022-08-23T21:24:27.236Z,99079.09
2022-08-23T21:26:54.877Z,99082.13
2022-08-23T21:29:22.545Z,99074.56
2022-08-23T21:31:51.533Z,99086.72
2022-08-23T21:34:19.545Z,99084.88
2022-08-23T21:36:47.155Z,99083.03
2022-08-23T21:39:14.803Z,99085.72
2022-08-23T21:41:44.451Z,99084.72
2022-08-23T21:44:14.526Z,99079.78
2022-08-23T21:46:42.398Z,99082.81
2022-08-23T21:49:12.500Z,99077.25
2022-08-23T21:51:40.555Z,99081.50
2022-08-23T21:54:09.895Z,99083.19
2022-08-23T21:56:38.092Z,99077.78
2022-08-23T21:59:07.707Z,99078.31
2022-08-23T22:01:36.240Z,99073.78
2022-08-23T22:04:05.970Z,99076.03
2022-08-23T22:06:36.338Z,99073.34
2022-08-23T22:09:05.276Z,99085.72
2022-08-23T22:11:32.922Z,99081.59
2022-08-23T22:14:00.649Z,99070.44
2022-08-23T22:16:28.381Z,99076.84
2022-08-23T22:18:55.971Z,99075.81
2022-08-23T22:21:23.624Z,99070.72
2022-08-23T22:23:52.655Z,99074.97
2022-08-23T22:26:20.355Z,99089.84
2022-08-23T22:28:48.004Z,99084.19
2022-08-23T22:31:16.096Z,99076.16
2022-08-23T22:33:45.023Z,99087.63
2022-08-23T22:36:14.661Z,99082.50
2022-08-23T22:38:42.700Z,99077.63
2022-08-23T22:41:12.484Z,99090.13
2022-08-23T22:43:40.104Z,99095.34
2022-08-23T22:46:07.813Z,99097.44
2022-08-23T22:48:35.862Z,99094.19
2022-08-23T22:51:08.289Z,99094.19
2022-08-23T22:53:37.260Z,99095.50
2022-08-23T22:56:05.847Z,99093.34
2022-08-23T22:58:35.092Z,99093.50
2022-08-23T23:01:07.048Z,99088.38
2022-08-23T23:03:38.423Z,99087.69
2022-08-23T23:06:08.866Z,99092.97
2022-08-23T23:08:36.944Z,99092.22
2022-08-23T23:11:07.448Z,99094.75
2022-08-23T23:13:36.606Z,99094.91
2022-08-23T23:16:06.607Z,99100.56
2022-08-23T23:18:35.127Z,99089.06
2022-08-23T23:21:03.843Z,99091.75
2022-08-23T23:23:33.254Z,99099.97
2022-08-23T23:26:01.191Z,99093.91
2022-08-23T23:28:29.039Z,99091.91
2022-08-23T23:30:59.447Z,99094.06
2022-08-23T23:33:28.073Z,99092.91
2022-08-23T23:35:57.181Z,99102.97
2022-08-23T23:38:24.913Z,99098.44
2022-08-23T23:40:52.700Z,99107.66
2022-08-23T23:43:20.308Z,99111.50
2022-08-23T23:45:47.983Z,99116.41
2022-08-23T23:48:17.081Z,99120.50
2022-08-23T23:50:45.036Z,99120.78
2022-08-23T23:53:14.699Z,99115.56
2022-08-23T23:55:42.460Z,99110.91
2022-08-23T23:58:10.125Z,99118.38
